Terminal Aerodrome Forecast
Issued by NWS Sterling, VA

Home | Current Version | Previous Version | Text Only | Print | Product List | Glossary On
Versions: 1 2 3 4 5 6 7 8 9 10 11 12 13 14 15 16 17
000
FTUS41 KLWX 261100
TAFCHO
TAF
KCHO 261137Z 2612/2712 03009KT 2SM RA OVC025
     FM261500 01007KT 1SM -RASN OVC008
     FM261800 35007KT 2SM -SN OVC008
     FM262100 32007KT P6SM OVC008
     FM262300 31005KT P6SM OVC015
     FM270100 VRB03KT P6SM SCT008 BKN050=

USA.gov is the U.S. government's official web portal to all federal, state and local government web resources and services.